sensor_id;sensor_type;location;lat;lon;timestamp;P1;durP1;ratioP1;P2;durP2;ratioP2
64682;SDS011;51107;47.652;19.016;2022-07-24T00:01:37;3.62;;;2.62;;
64682;SDS011;51107;47.652;19.016;2022-07-24T00:04:06;3.62;;;2.60;;
64682;SDS011;51107;47.652;19.016;2022-07-24T00:06:35;3.22;;;2.20;;
64682;SDS011;51107;47.652;19.016;2022-07-24T00:09:04;5.65;;;2.67;;
64682;SDS011;51107;47.652;19.016;2022-07-24T00:11:34;3.53;;;2.53;;
64682;SDS011;51107;47.652;19.016;2022-07-24T00:14:02;3.17;;;2.33;;
64682;SDS011;51107;47.652;19.016;2022-07-24T00:16:30;4.05;;;2.25;;
64682;SDS011;51107;47.652;19.016;2022-07-24T00:18:59;2.70;;;2.30;;
64682;SDS011;51107;47.652;19.016;2022-07-24T00:21:27;3.50;;;2.80;;
64682;SDS011;51107;47.652;19.016;2022-07-24T00:23:55;5.05;;;2.92;;
64682;SDS011;51107;47.652;19.016;2022-07-24T00:26:24;3.10;;;2.28;;
64682;SDS011;51107;47.652;19.016;2022-07-24T00:28:52;4.75;;;3.25;;
64682;SDS011;51107;47.652;19.016;2022-07-24T00:31:21;3.28;;;2.50;;
64682;SDS011;51107;47.652;19.016;2022-07-24T00:33:49;5.00;;;2.90;;
64682;SDS011;51107;47.652;19.016;2022-07-24T00:36:18;3.78;;;2.58;;
64682;SDS011;51107;47.652;19.016;2022-07-24T00:38:46;3.47;;;2.42;;
64682;SDS011;51107;47.652;19.016;2022-07-24T00:41:14;2.62;;;2.20;;
64682;SDS011;51107;47.652;19.016;2022-07-24T00:43:59;3.17;;;2.50;;
64682;SDS011;51107;47.652;19.016;2022-07-24T00:46:38;3.50;;;2.75;;
64682;SDS011;51107;47.652;19.016;2022-07-24T00:49:11;3.00;;;2.42;;
64682;SDS011;51107;47.652;19.016;2022-07-24T00:51:50;3.58;;;2.42;;
64682;SDS011;51107;47.652;19.016;2022-07-24T00:54:20;4.03;;;2.65;;
64682;SDS011;51107;47.652;19.016;2022-07-24T00:56:51;4.20;;;2.47;;
64682;SDS011;51107;47.652;19.016;2022-07-24T00:59:21;6.90;;;2.83;;
64682;SDS011;51107;47.652;19.016;2022-07-24T01:01:50;3.58;;;2.62;;
64682;SDS011;51107;47.652;19.016;2022-07-24T01:04:19;3.35;;;2.70;;
64682;SDS011;51107;47.652;19.016;2022-07-24T01:06:47;3.25;;;2.65;;
64682;SDS011;51107;47.652;19.016;2022-07-24T01:09:16;7.20;;;2.78;;
64682;SDS011;51107;47.652;19.016;2022-07-24T01:11:46;5.20;;;2.37;;
64682;SDS011;51107;47.652;19.016;2022-07-24T01:14:14;5.50;;;2.35;;
64682;SDS011;51107;47.652;19.016;2022-07-24T01:16:43;4.18;;;2.30;;
64682;SDS011;51107;47.652;19.016;2022-07-24T01:19:12;3.17;;;2.10;;
64682;SDS011;51107;47.652;19.016;2022-07-24T01:21:48;2.55;;;2.30;;
64682;SDS011;51107;47.652;19.016;2022-07-24T01:24:18;4.25;;;2.50;;
64682;SDS011;51107;47.652;19.016;2022-07-24T01:26:47;3.20;;;2.40;;
64682;SDS011;51107;47.652;19.016;2022-07-24T01:29:16;2.75;;;2.22;;
64682;SDS011;51107;47.652;19.016;2022-07-24T01:31:45;2.80;;;2.33;;
64682;SDS011;51107;47.652;19.016;2022-07-24T01:34:13;3.45;;;2.20;;
64682;SDS011;51107;47.652;19.016;2022-07-24T01:36:41;3.95;;;2.50;;
64682;SDS011;51107;47.652;19.016;2022-07-24T01:39:10;2.30;;;1.75;;
64682;SDS011;51107;47.652;19.016;2022-07-24T01:41:39;2.10;;;1.85;;
64682;SDS011;51107;47.652;19.016;2022-07-24T01:44:07;2.78;;;2.12;;
64682;SDS011;51107;47.652;19.016;2022-07-24T01:46:35;5.53;;;2.25;;
64682;SDS011;51107;47.652;19.016;2022-07-24T01:49:04;2.75;;;1.87;;
64682;SDS011;51107;47.652;19.016;2022-07-24T01:51:33;3.45;;;2.08;;
64682;SDS011;51107;47.652;19.016;2022-07-24T01:54:02;3.85;;;2.25;;
64682;SDS011;51107;47.652;19.016;2022-07-24T01:56:30;3.87;;;2.15;;
64682;SDS011;51107;47.652;19.016;2022-07-24T01:58:59;3.17;;;2.58;;
64682;SDS011;51107;47.652;19.016;2022-07-24T02:01:34;3.15;;;2.22;;
64682;SDS011;51107;47.652;19.016;2022-07-24T02:04:03;5.30;;;2.30;;
64682;SDS011;51107;47.652;19.016;2022-07-24T02:06:31;2.20;;;2.00;;
64682;SDS011;51107;47.652;19.016;2022-07-24T02:09:00;3.10;;;2.50;;
64682;SDS011;51107;47.652;19.016;2022-07-24T02:11:29;2.80;;;1.92;;
64682;SDS011;51107;47.652;19.016;2022-07-24T02:13:58;4.45;;;2.42;;
64682;SDS011;51107;47.652;19.016;2022-07-24T02:16:28;2.65;;;1.92;;
64682;SDS011;51107;47.652;19.016;2022-07-24T02:18:57;4.05;;;2.03;;
64682;SDS011;51107;47.652;19.016;2022-07-24T02:21:25;6.22;;;2.15;;
64682;SDS011;51107;47.652;19.016;2022-07-24T02:23:54;3.10;;;2.20;;
64682;SDS011;51107;47.652;19.016;2022-07-24T02:26:22;3.78;;;2.15;;
64682;SDS011;51107;47.652;19.016;2022-07-24T02:28:50;3.03;;;2.17;;
64682;SDS011;51107;47.652;19.016;2022-07-24T02:31:19;5.32;;;2.25;;
64682;SDS011;51107;47.652;19.016;2022-07-24T02:33:47;3.28;;;1.87;;
64682;SDS011;51107;47.652;19.016;2022-07-24T02:36:16;6.80;;;2.20;;
64682;SDS011;51107;47.652;19.016;2022-07-24T02:38:44;3.28;;;2.55;;
64682;SDS011;51107;47.652;19.016;2022-07-24T02:41:12;2.72;;;2.20;;
64682;SDS011;51107;47.652;19.016;2022-07-24T02:43:41;3.28;;;2.00;;
64682;SDS011;51107;47.652;19.016;2022-07-24T02:46:09;2.87;;;2.00;;
64682;SDS011;51107;47.652;19.016;2022-07-24T02:48:37;3.92;;;2.08;;
64682;SDS011;51107;47.652;19.016;2022-07-24T02:51:06;2.37;;;2.03;;
64682;SDS011;51107;47.652;19.016;2022-07-24T02:53:34;3.83;;;2.30;;
64682;SDS011;51107;47.652;19.016;2022-07-24T02:56:02;5.20;;;2.08;;
64682;SDS011;51107;47.652;19.016;2022-07-24T02:58:31;2.92;;;2.15;;
64682;SDS011;51107;47.652;19.016;2022-07-24T03:00:59;3.60;;;2.35;;
64682;SDS011;51107;47.652;19.016;2022-07-24T03:03:28;2.92;;;2.25;;
64682;SDS011;51107;47.652;19.016;2022-07-24T03:05:56;2.67;;;2.20;;
64682;SDS011;51107;47.652;19.016;2022-07-24T03:08:25;2.97;;;2.30;;
64682;SDS011;51107;47.652;19.016;2022-07-24T03:10:53;3.45;;;2.58;;
64682;SDS011;51107;47.652;19.016;2022-07-24T03:13:21;3.08;;;2.40;;
64682;SDS011;51107;47.652;19.016;2022-07-24T03:15:50;2.87;;;2.20;;
64682;SDS011;51107;47.652;19.016;2022-07-24T03:18:18;3.17;;;2.08;;
64682;SDS011;51107;47.652;19.016;2022-07-24T03:20:49;4.53;;;2.12;;
64682;SDS011;51107;47.652;19.016;2022-07-24T03:23:18;2.58;;;2.28;;
64682;SDS011;51107;47.652;19.016;2022-07-24T03:25:46;4.93;;;2.37;;
64682;SDS011;51107;47.652;19.016;2022-07-24T03:28:15;3.10;;;2.22;;
64682;SDS011;51107;47.652;19.016;2022-07-24T03:30:43;7.78;;;2.70;;
64682;SDS011;51107;47.652;19.016;2022-07-24T03:33:11;2.28;;;2.08;;
64682;SDS011;51107;47.652;19.016;2022-07-24T03:35:40;4.55;;;2.87;;
64682;SDS011;51107;47.652;19.016;2022-07-24T03:38:08;2.40;;;2.05;;
64682;SDS011;51107;47.652;19.016;2022-07-24T03:40:36;3.25;;;2.45;;
64682;SDS011;51107;47.652;19.016;2022-07-24T03:43:05;6.03;;;2.40;;
64682;SDS011;51107;47.652;19.016;2022-07-24T03:45:33;2.83;;;2.35;;
64682;SDS011;51107;47.652;19.016;2022-07-24T03:48:01;3.30;;;2.22;;
64682;SDS011;51107;47.652;19.016;2022-07-24T03:50:30;2.53;;;2.25;;
64682;SDS011;51107;47.652;19.016;2022-07-24T03:52:58;4.35;;;2.22;;
64682;SDS011;51107;47.652;19.016;2022-07-24T03:55:28;2.75;;;2.12;;
64682;SDS011;51107;47.652;19.016;2022-07-24T03:57:56;3.83;;;2.65;;
64682;SDS011;51107;47.652;19.016;2022-07-24T04:00:24;9.02;;;2.33;;
64682;SDS011;51107;47.652;19.016;2022-07-24T04:02:53;3.40;;;2.30;;
64682;SDS011;51107;47.652;19.016;2022-07-24T04:05:21;3.42;;;2.17;;
64682;SDS011;51107;47.652;19.016;2022-07-24T04:07:50;2.67;;;2.12;;
64682;SDS011;51107;47.652;19.016;2022-07-24T04:10:18;3.58;;;2.58;;
64682;SDS011;51107;47.652;19.016;2022-07-24T04:12:46;7.20;;;2.55;;
64682;SDS011;51107;47.652;19.016;2022-07-24T04:15:14;3.85;;;2.55;;
64682;SDS011;51107;47.652;19.016;2022-07-24T04:17:43;2.78;;;2.00;;
64682;SDS011;51107;47.652;19.016;2022-07-24T04:20:11;3.10;;;2.35;;
64682;SDS011;51107;47.652;19.016;2022-07-24T04:22:40;5.32;;;2.90;;
64682;SDS011;51107;47.652;19.016;2022-07-24T04:25:09;3.15;;;2.37;;
64682;SDS011;51107;47.652;19.016;2022-07-24T04:27:38;2.33;;;1.80;;
64682;SDS011;51107;47.652;19.016;2022-07-24T04:30:06;3.20;;;2.08;;
64682;SDS011;51107;47.652;19.016;2022-07-24T04:32:35;4.20;;;2.47;;
64682;SDS011;51107;47.652;19.016;2022-07-24T04:35:04;3.53;;;2.50;;
64682;SDS011;51107;47.652;19.016;2022-07-24T04:37:33;2.20;;;2.00;;
64682;SDS011;51107;47.652;19.016;2022-07-24T04:40:02;2.35;;;1.85;;
64682;SDS011;51107;47.652;19.016;2022-07-24T04:42:30;2.15;;;1.90;;
64682;SDS011;51107;47.652;19.016;2022-07-24T04:44:58;3.95;;;2.28;;
64682;SDS011;51107;47.652;19.016;2022-07-24T04:47:27;4.57;;;2.08;;
64682;SDS011;51107;47.652;19.016;2022-07-24T04:49:55;3.03;;;2.40;;
64682;SDS011;51107;47.652;19.016;2022-07-24T04:52:23;2.33;;;2.00;;
64682;SDS011;51107;47.652;19.016;2022-07-24T04:54:52;3.47;;;2.30;;
64682;SDS011;51107;47.652;19.016;2022-07-24T04:57:20;3.87;;;2.50;;
64682;SDS011;51107;47.652;19.016;2022-07-24T04:59:49;2.60;;;2.15;;
64682;SDS011;51107;47.652;19.016;2022-07-24T05:02:17;4.70;;;2.85;;
64682;SDS011;51107;47.652;19.016;2022-07-24T05:04:45;3.17;;;2.42;;
64682;SDS011;51107;47.652;19.016;2022-07-24T05:07:14;3.58;;;2.55;;
64682;SDS011;51107;47.652;19.016;2022-07-24T05:09:42;3.53;;;2.72;;
64682;SDS011;51107;47.652;19.016;2022-07-24T05:12:10;3.35;;;2.60;;
64682;SDS011;51107;47.652;19.016;2022-07-24T05:14:39;3.25;;;2.50;;
64682;SDS011;51107;47.652;19.016;2022-07-24T05:17:07;5.87;;;2.83;;
64682;SDS011;51107;47.652;19.016;2022-07-24T05:19:35;4.78;;;3.03;;
64682;SDS011;51107;47.652;19.016;2022-07-24T05:22:04;3.60;;;2.70;;
64682;SDS011;51107;47.652;19.016;2022-07-24T05:24:32;4.70;;;2.75;;
64682;SDS011;51107;47.652;19.016;2022-07-24T05:27:00;4.00;;;2.50;;
64682;SDS011;51107;47.652;19.016;2022-07-24T05:29:30;2.65;;;2.20;;
64682;SDS011;51107;47.652;19.016;2022-07-24T05:31:59;3.97;;;2.92;;
64682;SDS011;51107;47.652;19.016;2022-07-24T05:34:27;3.85;;;2.70;;
64682;SDS011;51107;47.652;19.016;2022-07-24T05:36:55;3.20;;;2.47;;
64682;SDS011;51107;47.652;19.016;2022-07-24T05:39:23;3.55;;;2.80;;
64682;SDS011;51107;47.652;19.016;2022-07-24T05:41:52;2.42;;;2.20;;
64682;SDS011;51107;47.652;19.016;2022-07-24T05:44:20;3.47;;;2.55;;
64682;SDS011;51107;47.652;19.016;2022-07-24T05:46:49;3.47;;;2.62;;
64682;SDS011;51107;47.652;19.016;2022-07-24T05:49:17;4.37;;;2.62;;
64682;SDS011;51107;47.652;19.016;2022-07-24T05:51:45;3.53;;;2.78;;
64682;SDS011;51107;47.652;19.016;2022-07-24T05:54:14;6.70;;;3.15;;
64682;SDS011;51107;47.652;19.016;2022-07-24T05:56:42;3.62;;;2.95;;
64682;SDS011;51107;47.652;19.016;2022-07-24T05:59:10;3.97;;;2.80;;
64682;SDS011;51107;47.652;19.016;2022-07-24T06:01:39;3.42;;;2.72;;
64682;SDS011;51107;47.652;19.016;2022-07-24T06:04:08;3.85;;;2.85;;
64682;SDS011;51107;47.652;19.016;2022-07-24T06:06:36;2.55;;;2.10;;
64682;SDS011;51107;47.652;19.016;2022-07-24T06:09:04;4.05;;;3.17;;
64682;SDS011;51107;47.652;19.016;2022-07-24T06:11:33;3.60;;;2.67;;
64682;SDS011;51107;47.652;19.016;2022-07-24T06:14:02;4.60;;;3.22;;
64682;SDS011;51107;47.652;19.016;2022-07-24T06:16:31;3.90;;;2.92;;
64682;SDS011;51107;47.652;19.016;2022-07-24T06:19:00;4.12;;;2.75;;
64682;SDS011;51107;47.652;19.016;2022-07-24T06:21:29;6.22;;;2.90;;
64682;SDS011;51107;47.652;19.016;2022-07-24T06:23:57;4.87;;;2.85;;
64682;SDS011;51107;47.652;19.016;2022-07-24T06:26:26;7.57;;;2.58;;
64682;SDS011;51107;47.652;19.016;2022-07-24T06:28:54;3.92;;;3.05;;
64682;SDS011;51107;47.652;19.016;2022-07-24T06:31:22;3.62;;;2.85;;
64682;SDS011;51107;47.652;19.016;2022-07-24T06:33:51;4.47;;;2.95;;
64682;SDS011;51107;47.652;19.016;2022-07-24T06:36:19;4.90;;;3.05;;
64682;SDS011;51107;47.652;19.016;2022-07-24T06:38:47;4.55;;;3.08;;
64682;SDS011;51107;47.652;19.016;2022-07-24T06:41:16;4.32;;;3.12;;
64682;SDS011;51107;47.652;19.016;2022-07-24T06:43:45;5.95;;;3.25;;
64682;SDS011;51107;47.652;19.016;2022-07-24T06:46:13;6.37;;;3.25;;
64682;SDS011;51107;47.652;19.016;2022-07-24T06:48:41;3.83;;;2.78;;
64682;SDS011;51107;47.652;19.016;2022-07-24T06:51:10;3.62;;;2.90;;
64682;SDS011;51107;47.652;19.016;2022-07-24T06:53:38;4.40;;;3.25;;
64682;SDS011;51107;47.652;19.016;2022-07-24T06:56:09;7.32;;;3.35;;
64682;SDS011;51107;47.652;19.016;2022-07-24T06:58:37;5.87;;;3.10;;
64682;SDS011;51107;47.652;19.016;2022-07-24T07:01:05;4.68;;;3.47;;
64682;SDS011;51107;47.652;19.016;2022-07-24T07:03:34;4.25;;;3.03;;
64682;SDS011;51107;47.652;19.016;2022-07-24T07:06:02;5.90;;;3.22;;
64682;SDS011;51107;47.652;19.016;2022-07-24T07:08:30;4.28;;;2.83;;
64682;SDS011;51107;47.652;19.016;2022-07-24T07:10:59;3.00;;;2.58;;
64682;SDS011;51107;47.652;19.016;2022-07-24T07:13:27;5.60;;;2.87;;
64682;SDS011;51107;47.652;19.016;2022-07-24T07:15:55;3.72;;;2.75;;
64682;SDS011;51107;47.652;19.016;2022-07-24T07:18:24;4.30;;;3.00;;
64682;SDS011;51107;47.652;19.016;2022-07-24T07:20:52;3.40;;;2.90;;
64682;SDS011;51107;47.652;19.016;2022-07-24T07:23:22;3.65;;;2.62;;
64682;SDS011;51107;47.652;19.016;2022-07-24T07:25:54;3.58;;;2.80;;
64682;SDS011;51107;47.652;19.016;2022-07-24T07:28:23;7.85;;;3.30;;
64682;SDS011;51107;47.652;19.016;2022-07-24T07:30:51;3.62;;;2.83;;
64682;SDS011;51107;47.652;19.016;2022-07-24T07:33:20;3.55;;;2.78;;
64682;SDS011;51107;47.652;19.016;2022-07-24T07:35:48;4.85;;;2.72;;
64682;SDS011;51107;47.652;19.016;2022-07-24T07:38:17;7.80;;;3.20;;
64682;SDS011;51107;47.652;19.016;2022-07-24T07:40:51;6.12;;;3.10;;
64682;SDS011;51107;47.652;19.016;2022-07-24T07:43:20;6.30;;;3.10;;
64682;SDS011;51107;47.652;19.016;2022-07-24T07:45:48;3.80;;;2.97;;
64682;SDS011;51107;47.652;19.016;2022-07-24T07:48:17;4.07;;;2.92;;
64682;SDS011;51107;47.652;19.016;2022-07-24T07:50:45;4.62;;;3.15;;
64682;SDS011;51107;47.652;19.016;2022-07-24T07:53:13;3.80;;;2.60;;
64682;SDS011;51107;47.652;19.016;2022-07-24T07:55:42;3.97;;;3.12;;
64682;SDS011;51107;47.652;19.016;2022-07-24T07:58:10;5.25;;;3.05;;
64682;SDS011;51107;47.652;19.016;2022-07-24T08:00:39;4.70;;;3.00;;
64682;SDS011;51107;47.652;19.016;2022-07-24T08:03:07;3.60;;;2.78;;
64682;SDS011;51107;47.652;19.016;2022-07-24T08:05:35;3.40;;;2.80;;
64682;SDS011;51107;47.652;19.016;2022-07-24T08:08:04;3.87;;;3.03;;
64682;SDS011;51107;47.652;19.016;2022-07-24T08:10:33;3.95;;;2.90;;
64682;SDS011;51107;47.652;19.016;2022-07-24T08:13:01;3.30;;;2.75;;
64682;SDS011;51107;47.652;19.016;2022-07-24T08:15:29;4.18;;;3.15;;
64682;SDS011;51107;47.652;19.016;2022-07-24T08:17:58;5.43;;;3.28;;
64682;SDS011;51107;47.652;19.016;2022-07-24T08:20:27;3.55;;;2.90;;
64682;SDS011;51107;47.652;19.016;2022-07-24T08:22:55;7.62;;;3.30;;
64682;SDS011;51107;47.652;19.016;2022-07-24T08:25:26;3.72;;;2.80;;
64682;SDS011;51107;47.652;19.016;2022-07-24T08:27:54;3.90;;;2.90;;
64682;SDS011;51107;47.652;19.016;2022-07-24T08:30:22;3.53;;;2.90;;
64682;SDS011;51107;47.652;19.016;2022-07-24T08:32:53;3.80;;;2.85;;
64682;SDS011;51107;47.652;19.016;2022-07-24T08:35:21;2.83;;;2.53;;
64682;SDS011;51107;47.652;19.016;2022-07-24T08:37:59;3.72;;;2.83;;
64682;SDS011;51107;47.652;19.016;2022-07-24T08:40:36;3.37;;;2.45;;
64682;SDS011;51107;47.652;19.016;2022-07-24T08:43:07;3.20;;;2.47;;
64682;SDS011;51107;47.652;19.016;2022-07-24T08:45:38;3.22;;;2.58;;
64682;SDS011;51107;47.652;19.016;2022-07-24T08:48:08;2.83;;;2.37;;
64682;SDS011;51107;47.652;19.016;2022-07-24T08:50:39;4.03;;;2.40;;
64682;SDS011;51107;47.652;19.016;2022-07-24T08:53:08;2.83;;;2.47;;
64682;SDS011;51107;47.652;19.016;2022-07-24T08:55:38;3.03;;;2.10;;
64682;SDS011;51107;47.652;19.016;2022-07-24T08:58:07;4.30;;;2.25;;
64682;SDS011;51107;47.652;19.016;2022-07-24T09:00:35;4.00;;;2.50;;
64682;SDS011;51107;47.652;19.016;2022-07-24T09:03:04;2.78;;;2.47;;
64682;SDS011;51107;47.652;19.016;2022-07-24T09:05:32;3.08;;;2.53;;
64682;SDS011;51107;47.652;19.016;2022-07-24T09:08:10;3.42;;;2.50;;
64682;SDS011;51107;47.652;19.016;2022-07-24T09:10:40;3.65;;;2.40;;
64682;SDS011;51107;47.652;19.016;2022-07-24T09:13:15;2.87;;;2.20;;
64682;SDS011;51107;47.652;19.016;2022-07-24T09:15:48;3.10;;;2.40;;
64682;SDS011;51107;47.652;19.016;2022-07-24T09:18:31;3.05;;;2.58;;
64682;SDS011;51107;47.652;19.016;2022-07-24T09:21:22;2.78;;;2.50;;
64682;SDS011;51107;47.652;19.016;2022-07-24T09:23:49;3.62;;;2.62;;
64682;SDS011;51107;47.652;19.016;2022-07-24T09:26:17;3.58;;;2.60;;
64682;SDS011;51107;47.652;19.016;2022-07-24T09:28:47;2.83;;;2.30;;
64682;SDS011;51107;47.652;19.016;2022-07-24T09:31:16;2.47;;;2.12;;
64682;SDS011;51107;47.652;19.016;2022-07-24T09:33:44;2.92;;;2.50;;
64682;SDS011;51107;47.652;19.016;2022-07-24T09:36:13;3.35;;;2.70;;
64682;SDS011;51107;47.652;19.016;2022-07-24T09:38:46;3.45;;;2.33;;
64682;SDS011;51107;47.652;19.016;2022-07-24T09:44:02;4.07;;;2.40;;
64682;SDS011;51107;47.652;19.016;2022-07-24T09:47:03;4.55;;;2.42;;
64682;SDS011;51107;47.652;19.016;2022-07-24T09:49:36;2.97;;;2.25;;
64682;SDS011;51107;47.652;19.016;2022-07-24T09:54:47;3.12;;;2.62;;
64682;SDS011;51107;47.652;19.016;2022-07-24T09:57:28;3.03;;;2.40;;
64682;SDS011;51107;47.652;19.016;2022-07-24T10:00:02;3.95;;;3.30;;
64682;SDS011;51107;47.652;19.016;2022-07-24T10:02:34;4.62;;;2.60;;
64682;SDS011;51107;47.652;19.016;2022-07-24T10:05:03;3.92;;;2.70;;
64682;SDS011;51107;47.652;19.016;2022-07-24T10:07:32;3.40;;;2.42;;
64682;SDS011;51107;47.652;19.016;2022-07-24T10:10:01;4.05;;;2.30;;
64682;SDS011;51107;47.652;19.016;2022-07-24T10:12:30;2.58;;;2.37;;
64682;SDS011;51107;47.652;19.016;2022-07-24T10:14:59;3.47;;;2.78;;
64682;SDS011;51107;47.652;19.016;2022-07-24T10:17:49;4.07;;;2.20;;
64682;SDS011;51107;47.652;19.016;2022-07-24T10:20:44;2.45;;;2.25;;
64682;SDS011;51107;47.652;19.016;2022-07-24T10:23:21;3.30;;;2.53;;
64682;SDS011;51107;47.652;19.016;2022-07-24T10:25:59;2.92;;;2.60;;
64682;SDS011;51107;47.652;19.016;2022-07-24T10:28:40;3.03;;;2.58;;
64682;SDS011;51107;47.652;19.016;2022-07-24T10:31:11;2.85;;;2.47;;
64682;SDS011;51107;47.652;19.016;2022-07-24T10:33:42;3.90;;;2.87;;
64682;SDS011;51107;47.652;19.016;2022-07-24T10:36:19;3.78;;;2.58;;
64682;SDS011;51107;47.652;19.016;2022-07-24T10:38:56;2.92;;;2.33;;
64682;SDS011;51107;47.652;19.016;2022-07-24T10:41:29;3.42;;;2.30;;
64682;SDS011;51107;47.652;19.016;2022-07-24T10:44:11;2.83;;;2.50;;
64682;SDS011;51107;47.652;19.016;2022-07-24T10:46:58;2.15;;;1.95;;
64682;SDS011;51107;47.652;19.016;2022-07-24T10:49:39;2.85;;;2.47;;
64682;SDS011;51107;47.652;19.016;2022-07-24T11:00:37;25.12;;;1.98;;
64682;SDS011;51107;47.652;19.016;2022-07-24T11:06:09;2.45;;;1.95;;
64682;SDS011;51107;47.652;19.016;2022-07-24T11:11:20;4.32;;;2.17;;
64682;SDS011;51107;47.652;19.016;2022-07-24T11:13:51;1.60;;;1.50;;
64682;SDS011;51107;47.652;19.016;2022-07-24T11:16:21;2.17;;;1.98;;
64682;SDS011;51107;47.652;19.016;2022-07-24T11:21:36;2.25;;;1.83;;
64682;SDS011;51107;47.652;19.016;2022-07-24T11:26:58;1.90;;;1.73;;
64682;SDS011;51107;47.652;19.016;2022-07-24T11:29:36;2.62;;;2.17;;
64682;SDS011;51107;47.652;19.016;2022-07-24T11:32:07;1.80;;;1.70;;
64682;SDS011;51107;47.652;19.016;2022-07-24T11:34:46;1.50;;;1.40;;
64682;SDS011;51107;47.652;19.016;2022-07-24T11:37:16;2.58;;;1.62;;
64682;SDS011;51107;47.652;19.016;2022-07-24T11:39:46;1.70;;;1.60;;
64682;SDS011;51107;47.652;19.016;2022-07-24T11:42:15;2.45;;;1.98;;
64682;SDS011;51107;47.652;19.016;2022-07-24T11:44:46;2.12;;;1.87;;
64682;SDS011;51107;47.652;19.016;2022-07-24T11:47:16;2.55;;;1.83;;
64682;SDS011;51107;47.652;19.016;2022-07-24T11:54:55;2.42;;;2.00;;
64682;SDS011;51107;47.652;19.016;2022-07-24T11:57:27;3.05;;;1.83;;
64682;SDS011;51107;47.652;19.016;2022-07-24T12:00:18;1.70;;;1.45;;
64682;SDS011;51107;47.652;19.016;2022-07-24T12:02:49;1.90;;;1.77;;
64682;SDS011;51107;47.652;19.016;2022-07-24T12:05:27;2.45;;;1.92;;
64682;SDS011;51107;47.652;19.016;2022-07-24T12:07:58;2.42;;;1.80;;
64682;SDS011;51107;47.652;19.016;2022-07-24T12:10:28;3.45;;;2.10;;
64682;SDS011;51107;47.652;19.016;2022-07-24T12:12:57;2.10;;;1.80;;
64682;SDS011;51107;47.652;19.016;2022-07-24T12:15:26;2.65;;;1.75;;
64682;SDS011;51107;47.652;19.016;2022-07-24T12:18:01;1.90;;;1.60;;
64682;SDS011;51107;47.652;19.016;2022-07-24T12:20:32;1.77;;;1.55;;
64682;SDS011;51107;47.652;19.016;2022-07-24T12:23:03;1.85;;;1.65;;
64682;SDS011;51107;47.652;19.016;2022-07-24T12:25:34;3.35;;;1.67;;
64682;SDS011;51107;47.652;19.016;2022-07-24T12:28:04;1.87;;;1.60;;
64682;SDS011;51107;47.652;19.016;2022-07-24T12:30:36;2.15;;;1.55;;
64682;SDS011;51107;47.652;19.016;2022-07-24T12:35:55;1.45;;;1.35;;
64682;SDS011;51107;47.652;19.016;2022-07-24T12:38:39;1.48;;;1.37;;
64682;SDS011;51107;47.652;19.016;2022-07-24T12:41:19;1.52;;;1.35;;
64682;SDS011;51107;47.652;19.016;2022-07-24T12:43:53;2.70;;;1.27;;
64682;SDS011;51107;47.652;19.016;2022-07-24T12:46:23;1.42;;;1.33;;
64682;SDS011;51107;47.652;19.016;2022-07-24T12:48:57;2.20;;;1.73;;
64682;SDS011;51107;47.652;19.016;2022-07-24T12:54:15;1.70;;;1.60;;
64682;SDS011;51107;47.652;19.016;2022-07-24T12:56:49;1.52;;;1.40;;
64682;SDS011;51107;47.652;19.016;2022-07-24T12:59:29;4.00;;;1.70;;
64682;SDS011;51107;47.652;19.016;2022-07-24T13:02:06;2.80;;;1.65;;
64682;SDS011;51107;47.652;19.016;2022-07-24T13:04:41;1.87;;;1.35;;
64682;SDS011;51107;47.652;19.016;2022-07-24T13:07:11;1.77;;;1.48;;
64682;SDS011;51107;47.652;19.016;2022-07-24T13:09:41;2.40;;;1.70;;
64682;SDS011;51107;47.652;19.016;2022-07-24T13:12:11;2.30;;;1.50;;
64682;SDS011;51107;47.652;19.016;2022-07-24T13:14:40;2.20;;;1.70;;
64682;SDS011;51107;47.652;19.016;2022-07-24T13:19:39;1.40;;;1.30;;
64682;SDS011;51107;47.652;19.016;2022-07-24T13:22:09;2.58;;;1.40;;
64682;SDS011;51107;47.652;19.016;2022-07-24T13:24:38;2.08;;;1.60;;
64682;SDS011;51107;47.652;19.016;2022-07-24T13:27:07;1.62;;;1.48;;
64682;SDS011;51107;47.652;19.016;2022-07-24T13:29:37;2.10;;;1.27;;
64682;SDS011;51107;47.652;19.016;2022-07-24T13:32:05;1.40;;;1.30;;
64682;SDS011;51107;47.652;19.016;2022-07-24T13:34:34;1.67;;;1.42;;
64682;SDS011;51107;47.652;19.016;2022-07-24T13:37:04;1.50;;;1.37;;
64682;SDS011;51107;47.652;19.016;2022-07-24T13:39:36;1.58;;;1.40;;
64682;SDS011;51107;47.652;19.016;2022-07-24T13:42:09;1.62;;;1.52;;
64682;SDS011;51107;47.652;19.016;2022-07-24T13:44:37;1.60;;;1.40;;
64682;SDS011;51107;47.652;19.016;2022-07-24T13:47:06;2.28;;;1.70;;
64682;SDS011;51107;47.652;19.016;2022-07-24T13:49:35;2.95;;;1.60;;
64682;SDS011;51107;47.652;19.016;2022-07-24T13:52:03;1.45;;;1.25;;
64682;SDS011;51107;47.652;19.016;2022-07-24T13:54:36;1.80;;;1.60;;
64682;SDS011;51107;47.652;19.016;2022-07-24T13:57:05;1.40;;;1.20;;
64682;SDS011;51107;47.652;19.016;2022-07-24T13:59:33;1.92;;;1.60;;
64682;SDS011;51107;47.652;19.016;2022-07-24T14:02:03;2.00;;;1.15;;
64682;SDS011;51107;47.652;19.016;2022-07-24T14:04:32;1.40;;;1.25;;
64682;SDS011;51107;47.652;19.016;2022-07-24T14:07:01;1.12;;;1.02;;
64682;SDS011;51107;47.652;19.016;2022-07-24T14:09:30;1.55;;;1.27;;
64682;SDS011;51107;47.652;19.016;2022-07-24T14:11:58;1.45;;;1.30;;
64682;SDS011;51107;47.652;19.016;2022-07-24T14:14:27;1.50;;;1.30;;
64682;SDS011;51107;47.652;19.016;2022-07-24T14:16:55;1.02;;;0.90;;
64682;SDS011;51107;47.652;19.016;2022-07-24T14:19:24;1.60;;;1.30;;
64682;SDS011;51107;47.652;19.016;2022-07-24T14:21:53;3.35;;;1.20;;
64682;SDS011;51107;47.652;19.016;2022-07-24T14:24:21;1.67;;;1.40;;
64682;SDS011;51107;47.652;19.016;2022-07-24T14:26:50;2.15;;;1.60;;
64682;SDS011;51107;47.652;19.016;2022-07-24T14:29:18;2.47;;;1.20;;
64682;SDS011;51107;47.652;19.016;2022-07-24T14:31:46;2.35;;;1.35;;
64682;SDS011;51107;47.652;19.016;2022-07-24T14:34:15;1.30;;;1.20;;
64682;SDS011;51107;47.652;19.016;2022-07-24T14:36:44;1.48;;;1.30;;
64682;SDS011;51107;47.652;19.016;2022-07-24T14:39:12;1.85;;;1.25;;
64682;SDS011;51107;47.652;19.016;2022-07-24T14:41:42;1.15;;;1.00;;
64682;SDS011;51107;47.652;19.016;2022-07-24T14:44:11;1.30;;;1.20;;
64682;SDS011;51107;47.652;19.016;2022-07-24T14:46:40;2.33;;;1.20;;
64682;SDS011;51107;47.652;19.016;2022-07-24T14:49:08;1.65;;;1.10;;
64682;SDS011;51107;47.652;19.016;2022-07-24T14:51:37;1.25;;;1.08;;
64682;SDS011;51107;47.652;19.016;2022-07-24T14:54:06;1.25;;;1.10;;
64682;SDS011;51107;47.652;19.016;2022-07-24T14:56:37;1.55;;;1.27;;
64682;SDS011;51107;47.652;19.016;2022-07-24T14:59:07;1.30;;;1.20;;
64682;SDS011;51107;47.652;19.016;2022-07-24T15:01:47;1.15;;;1.00;;
64682;SDS011;51107;47.652;19.016;2022-07-24T15:04:16;1.80;;;1.35;;
64682;SDS011;51107;47.652;19.016;2022-07-24T15:06:44;1.08;;;0.98;;
64682;SDS011;51107;47.652;19.016;2022-07-24T15:09:13;1.37;;;1.00;;
64682;SDS011;51107;47.652;19.016;2022-07-24T15:11:41;1.00;;;0.90;;
64682;SDS011;51107;47.652;19.016;2022-07-24T15:14:10;1.92;;;1.35;;
64682;SDS011;51107;47.652;19.016;2022-07-24T15:16:38;1.05;;;0.95;;
64682;SDS011;51107;47.652;19.016;2022-07-24T15:19:07;1.62;;;0.98;;
64682;SDS011;51107;47.652;19.016;2022-07-24T15:21:36;1.00;;;0.93;;
64682;SDS011;51107;47.652;19.016;2022-07-24T15:24:05;1.20;;;1.10;;
64682;SDS011;51107;47.652;19.016;2022-07-24T15:26:35;1.20;;;1.10;;
64682;SDS011;51107;47.652;19.016;2022-07-24T15:29:04;1.05;;;1.00;;